In Rescue
 
Open Full Screen Window  High Contrast Mode
Wind Gusting 00 knots
03
July 25, 2021 7:30 AM EDT
Present Weather: Fog
Weather Information
Wind Direction
  270 °
Wind Speed
  03 kt (3 mph)
Wind Gust
  00 kt (0 mph)
Altimeter
29.91 in
Visibility
1/4 SM
Temperature
21° C
70° F
Dewpoint
20° C
68° F
Humidity
94%
Sky Condition
Overcast @ 100 ft
LIFR

METAR KDUH 251130Z AUTO 27003KT 1/4SM FG OVC001 21/20 A2991 RMK AO2 T02110202

FAA Disclaimer: The data displayed is for advisory purposes only and is not to be used for flight planning or operations.